createdAt,value
2022-09-09T00:04:21.944Z,17.51
2022-09-09T00:09:29.407Z,17.49
2022-09-09T00:14:45.923Z,17.51
2022-09-09T00:20:13.335Z,17.48
2022-09-09T00:25:52.606Z,17.47
2022-09-09T00:30:56.222Z,17.44
2022-09-09T00:35:59.598Z,17.43
2022-09-09T00:41:15.777Z,17.42
2022-09-09T00:46:36.027Z,17.41
2022-09-09T00:51:37.952Z,17.38
2022-09-09T00:57:17.949Z,17.37
2022-09-09T01:02:31.707Z,17.34
2022-09-09T01:07:33.766Z,17.33
2022-09-09T01:12:43.029Z,17.31
2022-09-09T01:18:12.727Z,17.32
2022-09-09T01:23:40.463Z,17.32
2022-09-09T01:34:32.703Z,17.28
2022-09-09T01:39:36.132Z,17.31
2022-09-09T01:44:42.702Z,17.29
2022-09-09T01:49:45.094Z,17.27
2022-09-09T01:54:56.795Z,17.26
2022-09-09T02:00:21.496Z,17.24
2022-09-09T02:05:40.720Z,17.23
2022-09-09T02:11:02.862Z,17.22
2022-09-09T02:16:42.670Z,17.22
2022-09-09T02:21:46.802Z,17.22
2022-09-09T02:26:53.871Z,17.23
2022-09-09T02:32:01.136Z,17.24
2022-09-09T02:37:10.754Z,17.24
2022-09-09T02:42:16.017Z,17.23
2022-09-09T02:47:56.127Z,17.23
2022-09-09T02:53:08.774Z,17.20
2022-09-09T02:58:19.717Z,17.19
2022-09-09T03:03:31.439Z,17.18
2022-09-09T03:08:36.021Z,17.16
2022-09-09T03:13:39.087Z,17.16
2022-09-09T03:18:41.410Z,17.15
2022-09-09T03:23:43.337Z,17.13
2022-09-09T03:28:45.866Z,17.11
2022-09-09T03:33:51.011Z,17.10
2022-09-09T03:38:56.044Z,17.10
2022-09-09T03:44:00.273Z,17.09
2022-09-09T03:49:06.077Z,17.10
2022-09-09T03:54:11.163Z,17.09
2022-09-09T03:59:15.394Z,17.09
2022-09-09T04:04:18.923Z,17.08
2022-09-09T04:09:20.858Z,17.08
2022-09-09T04:14:24.711Z,17.08
2022-09-09T04:19:26.850Z,17.09
2022-09-09T04:24:30.215Z,17.10
2022-09-09T04:29:34.736Z,17.09
2022-09-09T04:34:37.390Z,17.09
2022-09-09T04:39:39.396Z,17.09
2022-09-09T04:44:42.298Z,17.10
2022-09-09T04:49:44.278Z,17.11
2022-09-09T04:54:46.999Z,17.11
2022-09-09T04:59:49.110Z,17.12
2022-09-09T05:04:51.183Z,17.14
2022-09-09T05:09:53.332Z,17.14
2022-09-09T05:14:55.316Z,17.13
2022-09-09T05:19:57.963Z,17.13
2022-09-09T05:25:02.218Z,17.13
2022-09-09T05:30:05.658Z,17.10
2022-09-09T05:35:08.052Z,17.13
2022-09-09T05:40:12.201Z,17.17
2022-09-09T05:45:15.479Z,17.24
2022-09-09T05:50:17.546Z,17.29
2022-09-09T05:55:19.518Z,17.36
2022-09-09T06:00:22.667Z,17.42
2022-09-09T06:05:25.822Z,17.51
2022-09-09T06:10:27.953Z,17.61
2022-09-09T06:15:31.690Z,17.71
2022-09-09T06:20:33.646Z,17.82
2022-09-09T06:25:35.578Z,17.91
2022-09-09T06:30:37.967Z,17.96
2022-09-09T06:35:40.367Z,17.98
2022-09-09T06:40:42.437Z,18.00
2022-09-09T06:45:46.123Z,18.02
2022-09-09T06:50:48.553Z,18.07
2022-09-09T06:55:50.900Z,18.15
2022-09-09T07:00:52.876Z,18.25
2022-09-09T07:05:57.264Z,18.41
2022-09-09T07:11:12.240Z,18.52
2022-09-09T07:16:18.941Z,18.60
2022-09-09T07:21:22.663Z,18.71
2022-09-09T07:26:28.368Z,18.84
2022-09-09T07:31:33.781Z,18.96
2022-09-09T07:36:39.165Z,19.12
2022-09-09T07:41:45.962Z,19.24
2022-09-09T07:46:49.802Z,19.25
2022-09-09T07:51:56.264Z,19.43
2022-09-09T07:57:00.293Z,19.71
2022-09-09T08:02:05.336Z,19.82
2022-09-09T08:07:10.136Z,19.91
2022-09-09T08:12:19.636Z,19.84
2022-09-09T08:17:21.689Z,19.71
2022-09-09T08:22:25.611Z,19.65
2022-09-09T08:27:27.601Z,19.62
2022-09-09T08:32:30.467Z,19.62
2022-09-09T08:37:33.001Z,19.64
2022-09-09T08:42:53.334Z,19.71
2022-09-09T08:48:16.564Z,19.82
2022-09-09T08:53:31.457Z,19.89
2022-09-09T08:58:36.426Z,19.90
2022-09-09T09:04:26.839Z,19.95
2022-09-09T09:10:09.165Z,19.91
2022-09-09T09:15:32.753Z,19.72
2022-09-09T09:20:43.647Z,19.48
2022-09-09T09:25:46.546Z,19.21
2022-09-09T09:31:04.810Z,19.04
2022-09-09T09:36:09.593Z,19.01
2022-09-09T09:41:13.510Z,19.04
2022-09-09T09:46:24.999Z,19.19
2022-09-09T09:51:32.949Z,19.38
2022-09-09T09:56:35.596Z,19.67
2022-09-09T10:01:40.949Z,20.02
2022-09-09T10:06:46.127Z,20.16
2022-09-09T10:12:06.308Z,20.34
2022-09-09T10:17:18.191Z,20.44
2022-09-09T10:22:26.001Z,20.51
2022-09-09T10:27:33.678Z,20.59
2022-09-09T10:32:44.531Z,20.68
2022-09-09T10:38:04.856Z,20.80
2022-09-09T10:43:25.107Z,20.92
2022-09-09T10:49:05.328Z,20.93
2022-09-09T10:54:25.819Z,20.89
2022-09-09T10:59:36.311Z,20.83
2022-09-09T11:04:50.747Z,20.93
2022-09-09T11:09:59.809Z,20.84
2022-09-09T11:15:21.247Z,20.68
2022-09-09T11:20:26.392Z,20.46
2022-09-09T11:25:38.263Z,20.35
2022-09-09T11:31:29.598Z,20.34
2022-09-09T11:36:48.489Z,20.33
2022-09-09T11:41:50.590Z,20.31
2022-09-09T11:46:53.383Z,20.31
2022-09-09T11:51:56.006Z,20.52
2022-09-09T11:56:58.412Z,20.78
2022-09-09T12:02:19.984Z,20.97
2022-09-09T12:07:25.584Z,21.03
2022-09-09T12:12:43.163Z,20.89
2022-09-09T12:17:54.400Z,20.91
2022-09-09T12:23:17.252Z,20.96
2022-09-09T12:28:21.837Z,21.01
2022-09-09T12:33:24.725Z,21.11
2022-09-09T12:38:35.362Z,21.21
2022-09-09T12:43:37.461Z,21.24
2022-09-09T12:48:46.669Z,21.20
2022-09-09T12:53:48.921Z,21.17
2022-09-09T12:58:53.222Z,21.33
2022-09-09T13:03:56.296Z,21.49
2022-09-09T13:09:01.457Z,21.52
2022-09-09T13:14:04.191Z,21.42
2022-09-09T13:19:13.978Z,21.43
2022-09-09T13:24:35.864Z,21.57
2022-09-09T13:29:38.370Z,21.66
2022-09-09T13:34:40.857Z,21.70
2022-09-09T13:39:56.570Z,21.77
2022-09-09T13:45:01.151Z,21.78
2022-09-09T13:50:31.681Z,21.74
2022-09-09T13:55:33.966Z,21.70
2022-09-09T14:00:36.331Z,21.69
2022-09-09T14:05:38.853Z,21.61
2022-09-09T14:10:40.681Z,21.57
2022-09-09T14:15:42.553Z,21.51
2022-09-09T14:20:44.383Z,21.47
2022-09-09T14:25:46.189Z,21.50
2022-09-09T14:30:48.047Z,21.54
2022-09-09T14:36:05.542Z,21.61
2022-09-09T14:41:10.218Z,21.60
2022-09-09T14:46:14.799Z,21.60
2022-09-09T14:51:20.640Z,21.60
2022-09-09T14:56:25.653Z,21.52
2022-09-09T15:01:28.694Z,21.42
2022-09-09T15:06:34.216Z,21.33
2022-09-09T15:11:40.577Z,21.31
2022-09-09T15:16:42.500Z,21.29
2022-09-09T15:21:44.676Z,21.27
2022-09-09T15:26:47.668Z,21.28
2022-09-09T15:31:49.453Z,21.26
2022-09-09T15:36:51.251Z,21.07
2022-09-09T15:41:53.184Z,20.96
2022-09-09T15:46:55.277Z,20.92
2022-09-09T15:52:00.486Z,20.96
2022-09-09T15:57:04.213Z,20.98
2022-09-09T16:02:07.756Z,20.96
2022-09-09T16:07:10.844Z,20.95
2022-09-09T16:12:14.083Z,20.92
2022-09-09T16:17:16.315Z,20.89
2022-09-09T16:22:19.369Z,20.83
2022-09-09T16:27:21.126Z,20.78
2022-09-09T16:32:23.422Z,20.72
2022-09-09T16:37:25.226Z,20.71
2022-09-09T16:42:26.996Z,20.71
2022-09-09T16:47:28.937Z,20.67
2022-09-09T16:52:30.765Z,20.73
2022-09-09T16:57:32.577Z,20.74
2022-09-09T17:02:34.562Z,20.75
2022-09-09T17:07:36.927Z,20.73
2022-09-09T17:12:42.173Z,20.67
2022-09-09T17:17:46.078Z,20.61
2022-09-09T17:22:47.967Z,20.54
2022-09-09T17:27:49.986Z,20.48
2022-09-09T17:32:51.778Z,20.39
2022-09-09T17:37:55.392Z,20.31
2022-09-09T17:42:58.156Z,20.25
2022-09-09T17:47:59.986Z,20.19
2022-09-09T17:53:03.492Z,20.13
2022-09-09T17:58:06.000Z,20.08
2022-09-09T18:03:08.640Z,20.02
2022-09-09T18:08:10.526Z,19.99
2022-09-09T18:13:12.317Z,19.94
2022-09-09T18:18:14.234Z,19.90
2022-09-09T18:23:16.215Z,19.85
2022-09-09T18:28:20.201Z,19.79
2022-09-09T18:33:24.366Z,19.74
2022-09-09T18:38:26.197Z,19.66
2022-09-09T18:43:28.012Z,19.58
2022-09-09T18:48:30.016Z,19.51
2022-09-09T18:53:32.503Z,19.43
2022-09-09T18:58:36.056Z,19.34
2022-09-09T19:03:38.521Z,19.28
2022-09-09T19:08:42.500Z,19.24
2022-09-09T19:13:50.887Z,19.18
2022-09-09T19:18:52.877Z,19.14
2022-09-09T19:24:01.885Z,19.10
2022-09-09T19:29:03.777Z,19.05
2022-09-09T19:34:05.769Z,19.05
2022-09-09T19:39:08.882Z,19.04
2022-09-09T19:44:13.391Z,19.02
2022-09-09T19:49:15.695Z,19.02
2022-09-09T19:54:17.792Z,19.02
2022-09-09T19:59:19.744Z,19.00
2022-09-09T20:04:21.567Z,18.95
2022-09-09T20:09:25.902Z,18.93
2022-09-09T20:14:27.853Z,18.91
2022-09-09T20:19:29.757Z,18.87
2022-09-09T20:24:31.563Z,18.85
2022-09-09T20:29:33.638Z,18.84
2022-09-09T20:34:35.523Z,18.84
2022-09-09T20:39:37.394Z,18.85
2022-09-09T20:44:39.170Z,18.85
2022-09-09T20:49:40.993Z,18.87
2022-09-09T20:54:42.762Z,18.88
2022-09-09T20:59:48.162Z,18.88
2022-09-09T21:04:49.905Z,18.87
2022-09-09T21:09:51.882Z,18.85
2022-09-09T21:14:53.675Z,18.82
2022-09-09T21:19:57.403Z,18.81
2022-09-09T21:24:59.552Z,18.79
2022-09-09T21:30:03.927Z,18.77
2022-09-09T21:35:07.122Z,18.76
2022-09-09T21:40:09.503Z,18.71
2022-09-09T21:45:11.326Z,18.71
2022-09-09T21:50:14.425Z,18.69
2022-09-09T21:55:16.503Z,18.65
2022-09-09T22:00:18.382Z,18.59
2022-09-09T22:05:20.169Z,18.52
2022-09-09T22:10:23.194Z,18.47
2022-09-09T22:15:25.148Z,18.41
2022-09-09T22:20:27.062Z,18.34
2022-09-09T22:25:35.372Z,18.32
2022-09-09T22:30:38.118Z,18.27
2022-09-09T22:35:43.397Z,18.26
2022-09-09T22:40:45.143Z,18.27
2022-09-09T22:45:47.941Z,18.27
2022-09-09T22:50:49.671Z,18.27
2022-09-09T22:55:59.480Z,18.28
2022-09-09T23:01:07.537Z,18.27
2022-09-09T23:06:11.975Z,18.27
2022-09-09T23:11:14.123Z,18.26
2022-09-09T23:16:19.268Z,18.24
2022-09-09T23:21:23.182Z,18.22
2022-09-09T23:26:26.791Z,18.19
2022-09-09T23:31:33.109Z,18.14
2022-09-09T23:36:35.372Z,18.12
2022-09-09T23:41:38.156Z,18.07
2022-09-09T23:46:40.200Z,18.06
2022-09-09T23:51:42.110Z,18.04
2022-09-09T23:56:44.641Z,18.03
